Aérodrome :
LOGIN :

S'inscrire | Disclaimer

   EN    FR    IT 

 










Légende :    VFR   VFR Marginal   IFR   IFR Intensif   IFR Très Intensif
Visi : 
Plafond : 
>= 8 km
>= 3000ft
5 à 8 km
1000 à 3000 ft
1500m à 5 km
500 à 1000 ft
800 à 1500m
200 à 500 ft
< 800m
< 200 ft
Symboles :   Orages  Brouillard  Fortes neiges  Fortes précipitations  Vent > 20 kt
SIGMETs :   Divers  Orages  Givrage  Turbulence  Onde Orograph.  Cendres Volcan.






- Altitude de l'aérodrome : 1649 ft
- Code IATA : HHN


EDFH - Frankfurt-Hahn Rhineland-Palatinate

DERNIER METAR :
  • 191320Z 30008KT 9999 SCT007 BKN016 03/02 Q1016

METARs EXPIRÉS :
  • 191250Z 28006KT 9999 SCT011 03/03 Q1016
  • 191220Z 28008KT 250V310 9999 BKN011 03/02 Q1016
  • 191150Z 29008KT 260V320 9999 BKN011 03/02 Q1016
  • 191120Z 27008KT 240V300 9999 FEW004 BKN009 02/02 Q1016
  • 191050Z 27008KT 240V300 9000 FEW005 BKN010 02/02 Q1016

TAF TAF EDFH
Valide du 19 à 12h jusqu'au 20 à 12h UTC


191100Z 1912/2012 27007KT 9999 BKN010
BECMG 1912/1914 SCT015
BECMG 1917/1919 VRB03KT
BECMG 2000/2002 12005KT 2500 BR
TEMPO 2000/2010 0500 FG BKN001
PROB30
TEMPO 2003/2009 0100 FZFG
TEMPO 2010/2012 BKN003



MET'MAP, la Météo Aéronautique d'un coup d'oeil ! - Copyright ORBIFLY Décembre 2007 - Disclaimer

ORBIFLY MET'MAP TEAM :

Programmation & Développement : Alexandra Zaïnal
Conception & Développement : Baudouin d'Aumeries
Co-Programmation & Développement : Marc-Olivier Méhu
Soutien technique & logistique : Manuel Goepfert

Contact : metmap@orbifly.com




SOURCES & CREDITS :

   NOAA